This is the latest recevied weather packets stored in our database for station/object VK4AB-13. If no packets are shown the sender has not sent any weather packets the latest 10 day(s).
| Time | Temp. | Humidity | Pressure | Rain* | Wind** | Luminosity | Snow |
|---|---|---|---|---|---|---|---|
| 1777777131 | 26.67° C | 58% | 1018.3 hPa | 0 mm | - | 229 W/m² | - |
| 1777776831 | 27.22° C | 59% | 1018.4 hPa | 0 mm | - | 104 W/m² | - |
| 1777776531 | 27.22° C | 57% | 1018.4 hPa | 0 mm | - | 733 W/m² | - |
| 1777776231 | 27.22° C | 58% | 1018.5 hPa | 0 mm | - | 766 W/m² | - |
| 1777775931 | 27.22° C | 57% | 1018.6 hPa | 0 mm | - | 775 W/m² | - |
| 1777775631 | 27.22° C | 60% | 1018.7 hPa | 0 mm | - | 849 W/m² | - |
| 1777775556 | 26.67° C | 58% | 1018.7 hPa | 0 mm | - | 812 W/m² | - |
| 1777775331 | 26.67° C | 58% | 1018.7 hPa | 0 mm | - | 812 W/m² | - |
| 1777775031 | 26.67° C | 60% | 1018.8 hPa | 0 mm | - | 649 W/m² | - |
| 1777774731 | 26.11° C | 61% | 1018.9 hPa | 0 mm | - | 679 W/m² | - |
| 1777774431 | 26.11° C | 61% | 1019 hPa | 0 mm | - | 823 W/m² | - |
| 1777774131 | 25.56° C | 61% | 1019.1 hPa | 0 mm | - | 770 W/m² | - |
| 1777773831 | 25.56° C | 63% | 1019.3 hPa | 0 mm | - | 536 W/m² | - |
| 1777772492 | 25° C | 64% | 1019.7 hPa | 0 mm | - | 601 W/m² | - |
| 1777768601 | 26.11° C | 65% | 1020.8 hPa | 0 mm | - | 536 W/m² | - |
| 1777768601 | 25.56° C | 65% | 1020.8 hPa | 0 mm | - | 236 W/m² | - |
| 1777767231 | 25.56° C | 65% | 1021 hPa | 0 mm | - | 726 W/m² | - |
| 1777762132 | 20.56° C | 82% | 1021.4 hPa | 0 mm | - | 399 W/m² | - |
| 1777761231 | 19.44° C | 87% | 1021.3 hPa | 0 mm | - | 403 W/m² | - |
| 1777760931 | 18.89° C | 88% | 1021.3 hPa | 0 mm | - | 380 W/m² | - |
| 1777760332 | 18.33° C | 91% | 1021.4 hPa | 0 mm | - | 359 W/m² | - |
| 1777760032 | 17.78° C | 92% | 1021.4 hPa | 0 mm | - | 350 W/m² | - |
| 1777759732 | 17.78° C | 93% | 1021.2 hPa | 0 mm | - | 253 W/m² | - |
| 1777759432 | 17.78° C | 93% | 1021.2 hPa | 0 mm | - | 167 W/m² | - |
| 1777759132 | 17.22° C | 94% | 1021 hPa | 0 mm | - | 178 W/m² | - |
* Rain latest hour (hover to see other rain measurements)
** Current wind speed in m/s (hover to see current wind gust speed)